sensor_id;sensor_type;location;lat;lon;timestamp;temperature;humidity
50738;DHT22;36703;48.154;17.126;2024-03-07T00:01:38;10.90;49.40
50738;DHT22;36703;48.154;17.126;2024-03-07T00:05:40;10.80;49.90
50738;DHT22;36703;48.154;17.126;2024-03-07T00:09:41;10.70;50.30
50738;DHT22;36703;48.154;17.126;2024-03-07T00:13:42;10.70;50.20
50738;DHT22;36703;48.154;17.126;2024-03-07T00:17:44;10.70;50.20
50738;DHT22;36703;48.154;17.126;2024-03-07T00:21:46;10.90;50.80
50738;DHT22;36703;48.154;17.126;2024-03-07T00:25:47;10.70;50.70
50738;DHT22;36703;48.154;17.126;2024-03-07T00:29:50;10.70;51.10
50738;DHT22;36703;48.154;17.126;2024-03-07T00:33:54;10.70;50.50
50738;DHT22;36703;48.154;17.126;2024-03-07T00:37:57;11.80;52.10
50738;DHT22;36703;48.154;17.126;2024-03-07T00:41:59;10.60;50.80
50738;DHT22;36703;48.154;17.126;2024-03-07T00:46:00;11.10;52.10
50738;DHT22;36703;48.154;17.126;2024-03-07T00:50:01;10.50;50.40
50738;DHT22;36703;48.154;17.126;2024-03-07T00:54:03;10.40;52.00
50738;DHT22;36703;48.154;17.126;2024-03-07T00:58:04;10.30;51.30
50738;DHT22;36703;48.154;17.126;2024-03-07T01:02:06;10.40;53.40
50738;DHT22;36703;48.154;17.126;2024-03-07T01:06:08;10.20;52.90
50738;DHT22;36703;48.154;17.126;2024-03-07T01:10:10;10.10;53.30
50738;DHT22;36703;48.154;17.126;2024-03-07T01:14:12;10.00;54.10
50738;DHT22;36703;48.154;17.126;2024-03-07T01:18:14;9.90;54.60
50738;DHT22;36703;48.154;17.126;2024-03-07T01:22:16;9.90;55.00
50738;DHT22;36703;48.154;17.126;2024-03-07T01:26:17;9.80;55.60
50738;DHT22;36703;48.154;17.126;2024-03-07T01:30:18;9.70;56.80
50738;DHT22;36703;48.154;17.126;2024-03-07T01:34:20;9.70;56.70
50738;DHT22;36703;48.154;17.126;2024-03-07T01:38:21;9.70;56.50
50738;DHT22;36703;48.154;17.126;2024-03-07T01:42:23;9.70;56.60
50738;DHT22;36703;48.154;17.126;2024-03-07T01:46:26;9.60;56.50
50738;DHT22;36703;48.154;17.126;2024-03-07T01:50:27;9.50;56.80
50738;DHT22;36703;48.154;17.126;2024-03-07T01:54:28;9.60;57.00
50738;DHT22;36703;48.154;17.126;2024-03-07T01:58:30;9.50;57.20
50738;DHT22;36703;48.154;17.126;2024-03-07T02:02:32;9.60;57.20
50738;DHT22;36703;48.154;17.126;2024-03-07T02:06:34;9.70;57.20
50738;DHT22;36703;48.154;17.126;2024-03-07T02:10:36;9.60;57.00
50738;DHT22;36703;48.154;17.126;2024-03-07T02:14:37;9.70;57.10
50738;DHT22;36703;48.154;17.126;2024-03-07T02:18:38;9.70;56.90
50738;DHT22;36703;48.154;17.126;2024-03-07T02:22:40;9.70;56.80
50738;DHT22;36703;48.154;17.126;2024-03-07T02:26:42;9.80;56.80
50738;DHT22;36703;48.154;17.126;2024-03-07T02:30:43;9.80;56.80
50738;DHT22;36703;48.154;17.126;2024-03-07T02:34:46;9.90;56.80
50738;DHT22;36703;48.154;17.126;2024-03-07T02:38:48;9.80;56.70
50738;DHT22;36703;48.154;17.126;2024-03-07T02:42:49;9.80;56.70
50738;DHT22;36703;48.154;17.126;2024-03-07T02:46:50;9.80;56.90
50738;DHT22;36703;48.154;17.126;2024-03-07T02:50:52;9.70;56.90
50738;DHT22;36703;48.154;17.126;2024-03-07T02:54:53;11.80;57.80
50738;DHT22;36703;48.154;17.126;2024-03-07T02:58:54;9.80;56.10
50738;DHT22;36703;48.154;17.126;2024-03-07T03:02:56;9.80;57.10
50738;DHT22;36703;48.154;17.126;2024-03-07T03:06:57;9.70;57.10
50738;DHT22;36703;48.154;17.126;2024-03-07T03:10:59;9.70;57.00
50738;DHT22;36703;48.154;17.126;2024-03-07T03:15:00;9.80;56.90
50738;DHT22;36703;48.154;17.126;2024-03-07T03:19:02;9.80;56.80
50738;DHT22;36703;48.154;17.126;2024-03-07T03:23:03;9.80;56.80
50738;DHT22;36703;48.154;17.126;2024-03-07T03:27:05;9.70;56.70
50738;DHT22;36703;48.154;17.126;2024-03-07T03:31:07;9.80;56.60
50738;DHT22;36703;48.154;17.126;2024-03-07T03:35:09;9.80;56.20
50738;DHT22;36703;48.154;17.126;2024-03-07T03:39:16;9.80;56.30
50738;DHT22;36703;48.154;17.126;2024-03-07T03:43:43;9.70;57.70
50738;DHT22;36703;48.154;17.126;2024-03-07T03:47:45;9.70;56.30
50738;DHT22;36703;48.154;17.126;2024-03-07T03:51:47;9.80;56.20
50738;DHT22;36703;48.154;17.126;2024-03-07T03:55:48;9.70;56.20
50738;DHT22;36703;48.154;17.126;2024-03-07T03:59:50;9.70;56.10
50738;DHT22;36703;48.154;17.126;2024-03-07T04:03:51;9.70;56.00
50738;DHT22;36703;48.154;17.126;2024-03-07T04:07:52;9.60;56.00
50738;DHT22;36703;48.154;17.126;2024-03-07T04:11:54;9.70;56.20
50738;DHT22;36703;48.154;17.126;2024-03-07T04:15:55;10.50;56.20
50738;DHT22;36703;48.154;17.126;2024-03-07T04:19:57;9.70;55.70
50738;DHT22;36703;48.154;17.126;2024-03-07T04:23:59;10.30;56.00
50738;DHT22;36703;48.154;17.126;2024-03-07T04:28:01;9.70;54.80
50738;DHT22;36703;48.154;17.126;2024-03-07T04:32:04;9.60;55.80
50738;DHT22;36703;48.154;17.126;2024-03-07T04:36:06;9.70;55.20
50738;DHT22;36703;48.154;17.126;2024-03-07T04:40:08;9.60;55.10
50738;DHT22;36703;48.154;17.126;2024-03-07T04:44:16;9.40;55.20
50738;DHT22;36703;48.154;17.126;2024-03-07T04:48:18;9.70;56.00
50738;DHT22;36703;48.154;17.126;2024-03-07T04:52:19;9.30;55.50
50738;DHT22;36703;48.154;17.126;2024-03-07T04:56:20;9.80;55.50
50738;DHT22;36703;48.154;17.126;2024-03-07T05:00:22;9.30;55.30
50738;DHT22;36703;48.154;17.126;2024-03-07T05:04:24;9.30;54.60
50738;DHT22;36703;48.154;17.126;2024-03-07T05:08:26;9.40;55.00
50738;DHT22;36703;48.154;17.126;2024-03-07T05:12:27;9.40;54.80
50738;DHT22;36703;48.154;17.126;2024-03-07T05:16:29;9.40;54.60
50738;DHT22;36703;48.154;17.126;2024-03-07T05:20:31;9.50;54.50
50738;DHT22;36703;48.154;17.126;2024-03-07T05:24:33;9.60;54.20
50738;DHT22;36703;48.154;17.126;2024-03-07T05:28:37;9.60;54.00
50738;DHT22;36703;48.154;17.126;2024-03-07T05:32:39;11.50;55.00
50738;DHT22;36703;48.154;17.126;2024-03-07T05:36:41;9.60;53.90
50738;DHT22;36703;48.154;17.126;2024-03-07T05:40:46;9.60;53.80
50738;DHT22;36703;48.154;17.126;2024-03-07T05:44:49;8.60;54.10
50738;DHT22;36703;48.154;17.126;2024-03-07T05:48:50;9.60;54.70
50738;DHT22;36703;48.154;17.126;2024-03-07T05:52:53;9.60;53.30
50738;DHT22;36703;48.154;17.126;2024-03-07T05:56:54;9.80;54.10
50738;DHT22;36703;48.154;17.126;2024-03-07T06:00:56;9.70;53.90
50738;DHT22;36703;48.154;17.126;2024-03-07T06:04:57;10.50;54.40
50738;DHT22;36703;48.154;17.126;2024-03-07T06:09:00;9.70;53.90
50738;DHT22;36703;48.154;17.126;2024-03-07T06:13:04;9.60;53.70
50738;DHT22;36703;48.154;17.126;2024-03-07T06:17:06;9.50;53.90
50738;DHT22;36703;48.154;17.126;2024-03-07T06:21:08;9.40;54.80
50738;DHT22;36703;48.154;17.126;2024-03-07T06:25:09;9.40;54.20
50738;DHT22;36703;48.154;17.126;2024-03-07T06:29:19;9.40;54.20
50738;DHT22;36703;48.154;17.126;2024-03-07T06:33:21;9.50;54.10
50738;DHT22;36703;48.154;17.126;2024-03-07T06:37:23;9.50;54.10
50738;DHT22;36703;48.154;17.126;2024-03-07T06:41:24;9.50;54.10
50738;DHT22;36703;48.154;17.126;2024-03-07T06:45:26;9.50;54.00
50738;DHT22;36703;48.154;17.126;2024-03-07T06:49:27;9.50;53.90
50738;DHT22;36703;48.154;17.126;2024-03-07T06:53:29;9.60;53.90
50738;DHT22;36703;48.154;17.126;2024-03-07T06:57:31;9.50;53.80
50738;DHT22;36703;48.154;17.126;2024-03-07T07:01:32;9.60;53.80
50738;DHT22;36703;48.154;17.126;2024-03-07T07:05:34;9.50;53.80
50738;DHT22;36703;48.154;17.126;2024-03-07T07:09:35;9.50;53.90
50738;DHT22;36703;48.154;17.126;2024-03-07T07:13:37;9.40;53.90
50738;DHT22;36703;48.154;17.126;2024-03-07T07:17:39;9.40;53.90
50738;DHT22;36703;48.154;17.126;2024-03-07T07:21:41;9.50;53.80
50738;DHT22;36703;48.154;17.126;2024-03-07T07:25:43;9.40;53.70
50738;DHT22;36703;48.154;17.126;2024-03-07T07:29:44;9.60;53.80
50738;DHT22;36703;48.154;17.126;2024-03-07T07:33:46;9.50;53.50
50738;DHT22;36703;48.154;17.126;2024-03-07T07:37:48;9.60;53.40
50738;DHT22;36703;48.154;17.126;2024-03-07T07:41:52;9.60;53.40
50738;DHT22;36703;48.154;17.126;2024-03-07T07:45:53;9.70;53.20
50738;DHT22;36703;48.154;17.126;2024-03-07T07:49:55;10.20;53.00
50738;DHT22;36703;48.154;17.126;2024-03-07T07:53:56;10.50;52.40
50738;DHT22;36703;48.154;17.126;2024-03-07T07:57:58;10.00;52.20
50738;DHT22;36703;48.154;17.126;2024-03-07T08:02:00;10.00;52.50
50738;DHT22;36703;48.154;17.126;2024-03-07T08:06:02;10.00;52.50
50738;DHT22;36703;48.154;17.126;2024-03-07T08:10:04;9.90;52.40
50738;DHT22;36703;48.154;17.126;2024-03-07T08:14:06;9.90;52.30
50738;DHT22;36703;48.154;17.126;2024-03-07T08:18:07;9.90;52.10
50738;DHT22;36703;48.154;17.126;2024-03-07T08:22:12;10.40;52.30
50738;DHT22;36703;48.154;17.126;2024-03-07T08:26:13;10.10;51.90
50738;DHT22;36703;48.154;17.126;2024-03-07T08:30:16;10.20;51.90
50738;DHT22;36703;48.154;17.126;2024-03-07T08:34:18;10.20;51.80
50738;DHT22;36703;48.154;17.126;2024-03-07T08:38:19;10.20;51.50
50738;DHT22;36703;48.154;17.126;2024-03-07T08:42:21;10.10;51.60
50738;DHT22;36703;48.154;17.126;2024-03-07T08:46:22;10.20;51.50
50738;DHT22;36703;48.154;17.126;2024-03-07T08:50:24;10.30;51.30
50738;DHT22;36703;48.154;17.126;2024-03-07T08:54:27;10.30;51.20
50738;DHT22;36703;48.154;17.126;2024-03-07T08:58:28;10.40;51.10
50738;DHT22;36703;48.154;17.126;2024-03-07T09:02:31;10.40;50.90
50738;DHT22;36703;48.154;17.126;2024-03-07T09:06:32;10.50;50.90
50738;DHT22;36703;48.154;17.126;2024-03-07T09:10:33;10.40;50.80
50738;DHT22;36703;48.154;17.126;2024-03-07T09:14:35;10.30;50.80
50738;DHT22;36703;48.154;17.126;2024-03-07T09:18:36;10.40;50.70
50738;DHT22;36703;48.154;17.126;2024-03-07T09:22:40;10.40;50.60
50738;DHT22;36703;48.154;17.126;2024-03-07T09:26:42;10.40;50.60
50738;DHT22;36703;48.154;17.126;2024-03-07T09:30:44;10.50;50.40
50738;DHT22;36703;48.154;17.126;2024-03-07T09:34:45;10.70;50.30
50738;DHT22;36703;48.154;17.126;2024-03-07T09:38:47;10.70;50.00
50738;DHT22;36703;48.154;17.126;2024-03-07T09:42:49;10.80;50.00
50738;DHT22;36703;48.154;17.126;2024-03-07T09:46:54;10.90;49.80
50738;DHT22;36703;48.154;17.126;2024-03-07T09:50:56;10.80;49.80
50738;DHT22;36703;48.154;17.126;2024-03-07T09:54:59;10.70;49.60
50738;DHT22;36703;48.154;17.126;2024-03-07T09:59:00;10.70;49.70
50738;DHT22;36703;48.154;17.126;2024-03-07T10:03:10;10.70;49.70
50738;DHT22;36703;48.154;17.126;2024-03-07T10:07:15;10.80;49.60
50738;DHT22;36703;48.154;17.126;2024-03-07T10:11:17;10.80;49.40
50738;DHT22;36703;48.154;17.126;2024-03-07T10:15:18;10.80;49.40
50738;DHT22;36703;48.154;17.126;2024-03-07T10:19:20;10.80;49.40
50738;DHT22;36703;48.154;17.126;2024-03-07T10:23:22;10.80;49.30
50738;DHT22;36703;48.154;17.126;2024-03-07T10:27:25;10.80;49.30
50738;DHT22;36703;48.154;17.126;2024-03-07T10:31:28;10.70;49.30
50738;DHT22;36703;48.154;17.126;2024-03-07T10:35:30;10.70;49.30
50738;DHT22;36703;48.154;17.126;2024-03-07T10:39:32;10.80;49.40
50738;DHT22;36703;48.154;17.126;2024-03-07T10:43:35;10.80;49.20
50738;DHT22;36703;48.154;17.126;2024-03-07T10:47:39;10.90;49.10
50738;DHT22;36703;48.154;17.126;2024-03-07T10:51:44;10.90;49.00
50738;DHT22;36703;48.154;17.126;2024-03-07T10:56:01;10.90;49.00
50738;DHT22;36703;48.154;17.126;2024-03-07T11:00:16;11.10;49.00
50738;DHT22;36703;48.154;17.126;2024-03-07T11:04:35;11.10;48.90
50738;DHT22;36703;48.154;17.126;2024-03-07T11:08:37;11.00;49.00
50738;DHT22;36703;48.154;17.126;2024-03-07T11:12:39;11.00;49.00
50738;DHT22;36703;48.154;17.126;2024-03-07T11:16:42;11.00;49.00
50738;DHT22;36703;48.154;17.126;2024-03-07T11:20:43;10.90;49.00
50738;DHT22;36703;48.154;17.126;2024-03-07T11:24:59;10.80;49.30
50738;DHT22;36703;48.154;17.126;2024-03-07T11:29:37;10.80;49.40
50738;DHT22;36703;48.154;17.126;2024-03-07T11:34:11;10.80;49.30
50738;DHT22;36703;48.154;17.126;2024-03-07T11:38:13;10.80;49.30
50738;DHT22;36703;48.154;17.126;2024-03-07T11:42:24;10.90;49.20
50738;DHT22;36703;48.154;17.126;2024-03-07T11:46:34;10.90;49.00
50738;DHT22;36703;48.154;17.126;2024-03-07T11:50:36;10.90;49.20
50738;DHT22;36703;48.154;17.126;2024-03-07T11:54:40;10.90;49.00
50738;DHT22;36703;48.154;17.126;2024-03-07T11:58:47;10.90;49.10
50738;DHT22;36703;48.154;17.126;2024-03-07T12:02:55;11.10;49.10
50738;DHT22;36703;48.154;17.126;2024-03-07T12:06:58;11.30;48.80
50738;DHT22;36703;48.154;17.126;2024-03-07T12:11:01;11.30;48.70
50738;DHT22;36703;48.154;17.126;2024-03-07T12:15:04;10.50;48.30
50738;DHT22;36703;48.154;17.126;2024-03-07T12:19:13;11.20;48.70
50738;DHT22;36703;48.154;17.126;2024-03-07T12:23:18;11.20;48.70
50738;DHT22;36703;48.154;17.126;2024-03-07T12:27:22;11.30;48.60
50738;DHT22;36703;48.154;17.126;2024-03-07T12:31:24;11.30;48.70
50738;DHT22;36703;48.154;17.126;2024-03-07T12:35:26;11.30;48.50
50738;DHT22;36703;48.154;17.126;2024-03-07T12:39:27;11.30;48.40
50738;DHT22;36703;48.154;17.126;2024-03-07T12:43:34;11.40;48.30
50738;DHT22;36703;48.154;17.126;2024-03-07T12:47:36;11.50;48.20
50738;DHT22;36703;48.154;17.126;2024-03-07T12:51:38;11.50;48.00
50738;DHT22;36703;48.154;17.126;2024-03-07T12:55:42;10.60;47.60
50738;DHT22;36703;48.154;17.126;2024-03-07T12:59:44;11.50;48.00
50738;DHT22;36703;48.154;17.126;2024-03-07T13:03:46;11.90;48.10
50738;DHT22;36703;48.154;17.126;2024-03-07T13:07:48;12.20;47.80
50738;DHT22;36703;48.154;17.126;2024-03-07T13:11:49;12.30;47.60
50738;DHT22;36703;48.154;17.126;2024-03-07T13:15:50;12.50;47.50
50738;DHT22;36703;48.154;17.126;2024-03-07T13:19:55;12.40;47.40
50738;DHT22;36703;48.154;17.126;2024-03-07T13:24:01;12.50;47.40
50738;DHT22;36703;48.154;17.126;2024-03-07T13:28:03;12.60;47.40
50738;DHT22;36703;48.154;17.126;2024-03-07T13:32:08;12.60;47.40
50738;DHT22;36703;48.154;17.126;2024-03-07T13:36:10;12.70;47.20
50738;DHT22;36703;48.154;17.126;2024-03-07T13:40:11;12.70;47.30
50738;DHT22;36703;48.154;17.126;2024-03-07T13:44:23;12.70;47.20
50738;DHT22;36703;48.154;17.126;2024-03-07T13:48:25;12.90;47.20
50738;DHT22;36703;48.154;17.126;2024-03-07T13:52:26;12.80;47.10
50738;DHT22;36703;48.154;17.126;2024-03-07T13:56:36;12.90;47.10
50738;DHT22;36703;48.154;17.126;2024-03-07T14:00:48;12.70;47.10
50738;DHT22;36703;48.154;17.126;2024-03-07T14:05:11;12.50;47.40
50738;DHT22;36703;48.154;17.126;2024-03-07T14:09:30;12.30;47.40
50738;DHT22;36703;48.154;17.126;2024-03-07T14:13:39;12.20;47.60
50738;DHT22;36703;48.154;17.126;2024-03-07T14:31:01;12.10;47.70
50738;DHT22;36703;48.154;17.126;2024-03-07T14:35:14;12.10;47.70
50738;DHT22;36703;48.154;17.126;2024-03-07T14:39:19;12.00;47.70
50738;DHT22;36703;48.154;17.126;2024-03-07T14:43:24;12.00;47.70
50738;DHT22;36703;48.154;17.126;2024-03-07T14:47:26;12.10;47.70
50738;DHT22;36703;48.154;17.126;2024-03-07T14:51:28;12.10;47.60
50738;DHT22;36703;48.154;17.126;2024-03-07T14:55:30;12.00;47.70
50738;DHT22;36703;48.154;17.126;2024-03-07T14:59:32;11.90;47.80
50738;DHT22;36703;48.154;17.126;2024-03-07T15:03:33;11.90;47.90
50738;DHT22;36703;48.154;17.126;2024-03-07T15:07:35;11.90;47.90
50738;DHT22;36703;48.154;17.126;2024-03-07T15:11:37;11.70;47.90
50738;DHT22;36703;48.154;17.126;2024-03-07T15:15:41;11.70;47.90
50738;DHT22;36703;48.154;17.126;2024-03-07T15:19:43;11.50;48.10
50738;DHT22;36703;48.154;17.126;2024-03-07T15:23:45;11.50;48.10
50738;DHT22;36703;48.154;17.126;2024-03-07T15:27:46;11.40;48.20
50738;DHT22;36703;48.154;17.126;2024-03-07T15:31:49;11.40;48.20
50738;DHT22;36703;48.154;17.126;2024-03-07T15:35:50;11.50;48.10
50738;DHT22;36703;48.154;17.126;2024-03-07T15:39:53;11.40;48.20
50738;DHT22;36703;48.154;17.126;2024-03-07T15:43:54;11.30;48.40
50738;DHT22;36703;48.154;17.126;2024-03-07T15:47:56;11.30;48.40
50738;DHT22;36703;48.154;17.126;2024-03-07T15:51:59;11.40;48.30
50738;DHT22;36703;48.154;17.126;2024-03-07T15:56:00;11.40;48.10
50738;DHT22;36703;48.154;17.126;2024-03-07T16:00:02;11.30;48.30
50738;DHT22;36703;48.154;17.126;2024-03-07T16:04:23;11.30;48.40
50738;DHT22;36703;48.154;17.126;2024-03-07T16:08:24;11.30;48.30
50738;DHT22;36703;48.154;17.126;2024-03-07T16:12:26;11.30;48.20
50738;DHT22;36703;48.154;17.126;2024-03-07T16:16:27;11.30;48.40
50738;DHT22;36703;48.154;17.126;2024-03-07T16:20:29;11.20;48.30
50738;DHT22;36703;48.154;17.126;2024-03-07T16:24:30;11.10;48.40
50738;DHT22;36703;48.154;17.126;2024-03-07T16:28:32;11.20;48.40
50738;DHT22;36703;48.154;17.126;2024-03-07T16:32:33;11.10;48.40
50738;DHT22;36703;48.154;17.126;2024-03-07T16:36:38;11.10;48.50
50738;DHT22;36703;48.154;17.126;2024-03-07T16:40:39;11.10;48.40
50738;DHT22;36703;48.154;17.126;2024-03-07T16:44:43;11.20;48.30
50738;DHT22;36703;48.154;17.126;2024-03-07T16:48:44;11.10;48.30
50738;DHT22;36703;48.154;17.126;2024-03-07T16:52:46;11.10;48.50
50738;DHT22;36703;48.154;17.126;2024-03-07T16:56:48;10.90;48.60
50738;DHT22;36703;48.154;17.126;2024-03-07T17:00:49;10.90;48.60
50738;DHT22;36703;48.154;17.126;2024-03-07T17:04:52;10.90;48.70
50738;DHT22;36703;48.154;17.126;2024-03-07T17:08:54;10.90;48.70
50738;DHT22;36703;48.154;17.126;2024-03-07T17:12:55;10.80;48.80
50738;DHT22;36703;48.154;17.126;2024-03-07T17:16:56;10.90;48.80
50738;DHT22;36703;48.154;17.126;2024-03-07T17:20:59;10.80;48.80
50738;DHT22;36703;48.154;17.126;2024-03-07T17:25:00;10.80;48.80
50738;DHT22;36703;48.154;17.126;2024-03-07T17:29:02;10.80;48.80
50738;DHT22;36703;48.154;17.126;2024-03-07T17:33:04;10.80;48.80
50738;DHT22;36703;48.154;17.126;2024-03-07T17:37:07;10.70;48.90
50738;DHT22;36703;48.154;17.126;2024-03-07T17:41:11;10.80;48.90
50738;DHT22;36703;48.154;17.126;2024-03-07T17:45:13;10.80;48.80
50738;DHT22;36703;48.154;17.126;2024-03-07T17:49:22;10.90;48.80
50738;DHT22;36703;48.154;17.126;2024-03-07T17:53:25;10.80;48.80
50738;DHT22;36703;48.154;17.126;2024-03-07T17:57:27;10.80;48.80
50738;DHT22;36703;48.154;17.126;2024-03-07T18:01:31;10.80;48.90
50738;DHT22;36703;48.154;17.126;2024-03-07T18:05:33;11.50;49.10
50738;DHT22;36703;48.154;17.126;2024-03-07T18:09:37;10.80;48.70
50738;DHT22;36703;48.154;17.126;2024-03-07T18:13:40;10.80;48.80
50738;DHT22;36703;48.154;17.126;2024-03-07T18:17:42;10.80;48.90
50738;DHT22;36703;48.154;17.126;2024-03-07T18:21:44;10.80;48.90
50738;DHT22;36703;48.154;17.126;2024-03-07T18:25:45;10.90;48.80
50738;DHT22;36703;48.154;17.126;2024-03-07T18:29:48;10.90;48.60
50738;DHT22;36703;48.154;17.126;2024-03-07T18:33:49;10.90;48.60
50738;DHT22;36703;48.154;17.126;2024-03-07T18:37:51;11.00;48.60
50738;DHT22;36703;48.154;17.126;2024-03-07T18:41:53;10.80;48.70
50738;DHT22;36703;48.154;17.126;2024-03-07T18:45:54;10.70;48.80
50738;DHT22;36703;48.154;17.126;2024-03-07T18:49:55;10.60;49.00
50738;DHT22;36703;48.154;17.126;2024-03-07T18:53:57;10.60;49.00
50738;DHT22;36703;48.154;17.126;2024-03-07T18:57:59;10.60;49.10
50738;DHT22;36703;48.154;17.126;2024-03-07T19:02:04;10.50;49.10
50738;DHT22;36703;48.154;17.126;2024-03-07T19:06:11;10.50;49.20
50738;DHT22;36703;48.154;17.126;2024-03-07T19:10:12;10.50;49.10
50738;DHT22;36703;48.154;17.126;2024-03-07T19:14:18;10.50;49.10
50738;DHT22;36703;48.154;17.126;2024-03-07T19:18:19;10.60;49.10
50738;DHT22;36703;48.154;17.126;2024-03-07T19:22:22;10.60;49.00
50738;DHT22;36703;48.154;17.126;2024-03-07T19:26:24;10.60;49.00
50738;DHT22;36703;48.154;17.126;2024-03-07T19:30:26;10.60;49.10
50738;DHT22;36703;48.154;17.126;2024-03-07T19:34:29;10.50;49.10
50738;DHT22;36703;48.154;17.126;2024-03-07T19:38:31;10.40;49.40
50738;DHT22;36703;48.154;17.126;2024-03-07T19:42:33;10.30;49.60
50738;DHT22;36703;48.154;17.126;2024-03-07T19:46:38;10.30;49.60
50738;DHT22;36703;48.154;17.126;2024-03-07T19:50:39;10.30;49.50
50738;DHT22;36703;48.154;17.126;2024-03-07T19:54:42;10.40;49.40
50738;DHT22;36703;48.154;17.126;2024-03-07T19:58:44;10.50;49.40
50738;DHT22;36703;48.154;17.126;2024-03-07T20:02:46;10.50;49.80
50738;DHT22;36703;48.154;17.126;2024-03-07T20:06:48;10.50;49.20
50738;DHT22;36703;48.154;17.126;2024-03-07T20:10:49;10.50;49.20
50738;DHT22;36703;48.154;17.126;2024-03-07T20:14:51;10.50;49.30
50738;DHT22;36703;48.154;17.126;2024-03-07T20:18:52;10.40;49.50
50738;DHT22;36703;48.154;17.126;2024-03-07T20:22:53;10.50;49.80
50738;DHT22;36703;48.154;17.126;2024-03-07T20:26:55;10.40;49.50
50738;DHT22;36703;48.154;17.126;2024-03-07T20:30:56;10.30;49.60
50738;DHT22;36703;48.154;17.126;2024-03-07T20:34:58;10.30;49.70
50738;DHT22;36703;48.154;17.126;2024-03-07T20:39:00;10.80;50.30
50738;DHT22;36703;48.154;17.126;2024-03-07T20:43:04;10.20;49.90
50738;DHT22;36703;48.154;17.126;2024-03-07T20:47:05;10.30;50.10
50738;DHT22;36703;48.154;17.126;2024-03-07T20:51:07;10.10;50.10
50738;DHT22;36703;48.154;17.126;2024-03-07T20:55:11;10.20;50.20
50738;DHT22;36703;48.154;17.126;2024-03-07T20:59:17;10.30;50.10
50738;DHT22;36703;48.154;17.126;2024-03-07T21:03:21;10.30;50.30
50738;DHT22;36703;48.154;17.126;2024-03-07T21:07:28;10.10;50.20
50738;DHT22;36703;48.154;17.126;2024-03-07T21:11:30;10.20;50.10
50738;DHT22;36703;48.154;17.126;2024-03-07T21:15:33;10.10;50.90
50738;DHT22;36703;48.154;17.126;2024-03-07T21:19:35;10.10;50.60
50738;DHT22;36703;48.154;17.126;2024-03-07T21:23:36;10.10;50.60
50738;DHT22;36703;48.154;17.126;2024-03-07T21:27:38;10.10;50.20
50738;DHT22;36703;48.154;17.126;2024-03-07T21:31:41;10.00;50.70
50738;DHT22;36703;48.154;17.126;2024-03-07T21:35:43;9.90;50.50
50738;DHT22;36703;48.154;17.126;2024-03-07T21:39:45;10.00;50.50
50738;DHT22;36703;48.154;17.126;2024-03-07T21:43:46;10.00;50.50
50738;DHT22;36703;48.154;17.126;2024-03-07T21:47:48;9.90;50.50
50738;DHT22;36703;48.154;17.126;2024-03-07T21:51:49;9.70;51.00
50738;DHT22;36703;48.154;17.126;2024-03-07T21:55:51;9.80;50.00
50738;DHT22;36703;48.154;17.126;2024-03-07T21:59:56;9.80;51.30
50738;DHT22;36703;48.154;17.126;2024-03-07T22:03:58;9.90;50.00
50738;DHT22;36703;48.154;17.126;2024-03-07T22:07:59;9.90;49.80
50738;DHT22;36703;48.154;17.126;2024-03-07T22:12:00;9.80;49.90
50738;DHT22;36703;48.154;17.126;2024-03-07T22:16:02;9.80;50.10
50738;DHT22;36703;48.154;17.126;2024-03-07T22:20:04;9.80;50.00
50738;DHT22;36703;48.154;17.126;2024-03-07T22:24:05;9.70;50.80
50738;DHT22;36703;48.154;17.126;2024-03-07T22:28:08;9.60;51.00
50738;DHT22;36703;48.154;17.126;2024-03-07T22:32:10;9.60;50.70
50738;DHT22;36703;48.154;17.126;2024-03-07T22:36:11;9.60;50.80
50738;DHT22;36703;48.154;17.126;2024-03-07T22:40:14;9.60;50.90
50738;DHT22;36703;48.154;17.126;2024-03-07T22:44:15;9.60;51.50
50738;DHT22;36703;48.154;17.126;2024-03-07T22:48:17;9.50;51.60
50738;DHT22;36703;48.154;17.126;2024-03-07T22:52:18;9.60;51.80
50738;DHT22;36703;48.154;17.126;2024-03-07T22:56:20;9.50;52.00
50738;DHT22;36703;48.154;17.126;2024-03-07T23:00:22;9.50;52.20
50738;DHT22;36703;48.154;17.126;2024-03-07T23:04:37;9.50;52.40
50738;DHT22;36703;48.154;17.126;2024-03-07T23:08:39;9.40;52.90
50738;DHT22;36703;48.154;17.126;2024-03-07T23:12:42;9.40;52.80
50738;DHT22;36703;48.154;17.126;2024-03-07T23:16:45;9.40;52.80
50738;DHT22;36703;48.154;17.126;2024-03-07T23:20:48;9.30;53.10
50738;DHT22;36703;48.154;17.126;2024-03-07T23:24:50;9.70;53.60
50738;DHT22;36703;48.154;17.126;2024-03-07T23:28:51;9.30;53.50
50738;DHT22;36703;48.154;17.126;2024-03-07T23:32:54;9.20;53.50
50738;DHT22;36703;48.154;17.126;2024-03-07T23:36:56;9.20;53.60
50738;DHT22;36703;48.154;17.126;2024-03-07T23:40:57;9.20;53.00
50738;DHT22;36703;48.154;17.126;2024-03-07T23:45:00;9.20;53.00
50738;DHT22;36703;48.154;17.126;2024-03-07T23:49:02;10.20;54.30
50738;DHT22;36703;48.154;17.126;2024-03-07T23:53:03;9.20;53.20
50738;DHT22;36703;48.154;17.126;2024-03-07T23:57:07;9.20;53.30
